Pagrindinis puslapis
METAR-TAF:

METAR-TAF

Oro uostai :

Venecijos Marko Polo oro uostas

Venecija, Italija

platuma: 45-30N, ilguma: 012-20E, Aukštis: 2 m

Dabartinis oras

Ataskaita buvo paskelbta 11 minutes, ne 23:50 UTC
Vėjas 6 kt iš Šiaurės/Šiaurės Rytų
Temperatūra 11°C
Drėgmė 37%
Slėgis 1029 hPa
Matomumas 10 km arba daugiau
nėra debesų žemiau 1500 m ir nėra kamuolinių lietaus debesų

METAR: LIPZ 072350Z 02006KT CAVOK 11/M03 Q1029 NOSIG

Laikas: 02:01 (00:01 UTC)

Prognozė

Ataskaita buvo paskelbta 1 valandą ir 1 minutes, ne 23:00 UTC
Prognozė galioja nuo 08 metu 00 UTC su 09 metu 06 UTC
Vėjas 4 kt nuo kintamojo kryptimis
Matomumas 10 km arba daugiau
nėra debesų žemiau 1500 m ir nėra kamuolinių lietaus debesų
Tapsmas
nuo 08 metu 08 UTC su 08 metu 10 UTC
Vėjas 10 kt iš Pietų/Pietryčių
Tapsmas
nuo 08 metu 16 UTC su 08 metu 18 UTC
Vėjas 5 kt nuo kintamojo kryptimis

TAF: LIPZ 072300Z 0800/0906 VRB04KT CAVOK BECMG 0808/0810 15010KT BECMG 0816/0818 VRB05KT

Orai ataskaitas ir orų prognozės (METAR, TAF).

turimą stotys yra geltonos ir raudonos taškus žemėlapyje.

Perkelti pele per norėdami pamatyti stoties vardą.

Tada spustelėkite, norėdami matyti oro stebėjimo ir prognozės.

Norėdami pakeisti žemėlapį: spustelėkite ant žalios mygtukų su juodo kryžiaus žemyn,; žalią mygtuką su brūkšneliu, jei norite nutolinti; arba žalių rodyklių gretimoms žemėlapius.


METAR-TAF: